Main page
METAR-TAF:

METAR-TAF

Airports :

Kalamata International Airport

Kalamata, Greece

latitude: 37-04N, longitude: 022-01E, elevation: 6 m

Current weather observation

The report was made 30 minutes ago, at 02:20 UTC
Wind 4 kt from the South/Southwest, varying between South/Southeast and West/Southwest
Temperature 15°C
Humidity 82%
Pressure 1010 hPa

METAR: LGKL 270220Z AUTO 21004KT 160V250 //// // ////// 15/12 Q1010 RE//

Time: 04:50 (02:50 UTC)

Forecast

The report was made 50 minutes ago, at 02:00 UTC
Forecast valid from 27 at 03 UTC to 27 at 12 UTC
Wind 12 kt from the South/Southeast
Visibility 10 km or more
Few clouds at a height of 1800 ft
Scattered clouds at a height of 2500 ft
Broken clouds at a height of 8000 ft
Becoming
from 27 at 04 UTC to 27 at 06 UTC
Wind 10 kt from the West/Northwest
Probability 30% :
Temporary
from 27 at 07 UTC to 27 at 12 UTC
Visibility: 7000 m
rain

TAF: LGKL 270200Z 2703/2712 16012KT 9999 FEW018 SCT025 BKN080 BECMG 2704/2706 29010KT PROB30 TEMPO 2707/2712 7000 RA

Weather observations and forecasts of more than 4000 airports (METAR and TAF reports).

The available stations are represented by yellow and red dots on the map.

Hover mouse over dot to see the name of the station.

Then click to see weather observations and forecasts.

To change the map : click on the green buttons with a black cross to zoom in, on the green button with a dash to zoom out, or on the green arrows for adjacent maps.


METAR-TAF: